| time (UTC) | temp C | wind direction | speed KPH | gust KPH | rain 1hr cm | rain 24hr cm | rain mn cm | humidity % | barometer mb |
| 20260904210004 | 15 | 290 | 9.7 | 29.0 | 0.61 | 0.91 | 0.91 | 90 | 1010.7 |
| 20260904205007 | 16 | 278 | 6.4 | 29.0 | 0.71 | 0.89 | 0.89 | 90 | 1010.7 |
| 20260904204006 | 16 | 347 | 6.4 | 17.7 | 0.81 | 0.89 | 0.89 | 89 | 1010.4 |
| 20260904203220 | 16 | 313 | 6.4 | 20.9 | 0.89 | 0.89 | 0.89 | 89 | 1010.1 |
| 20260904202220 | 16 | 338 | 6.4 | 17.7 | 0.84 | 0.84 | 0.84 | 89 | 1010.3 |
| 20260904201220 | 17 | 330 | 6.4 | 25.7 | 0.64 | 0.64 | 0.64 | 88 | 1010.2 |
| 20260904200007 | 17 | 337 | 6.4 | 19.3 | 0.33 | 0.33 | 0.33 | 87 | 1010.4 |
| 20260904195218 | 18 | 334 | 8.0 | 17.7 | 0.23 | 0.23 | 0.23 | 86 | 1009.9 |
| 20260904194003 | 18 | 343 | 4.8 | 20.9 | 0.08 | 0.08 | 0.08 | 83 | 1009.7 |
| 20260904193220 | 19 | 6 | 6.4 | 20.9 | 0.00 | 0.00 | 0.00 | 81 | 1009.5 |
| 20260904192006 | 20 | 357 | 9.7 | 25.7 | 0.00 | 0.00 | 0.00 | 79 | 1009.2 |
| 20260904191003 | 20 | 1 | 9.7 | 24.1 | 0.00 | 0.00 | 0.00 | 76 | 1009.3 |
| 20260904190007 | 22 | 358 | 8.0 | 27.4 | 0.00 | 0.00 | 0.00 | 69 | 1008.8 |
| 20260904185218 | 23 | 339 | 1.6 | 29.0 | 0.00 | 0.00 | 0.00 | 66 | 1008.3 |
| 20260904184006 | 24 | 184 | 1.6 | 3.2 | 0.00 | 0.00 | 0.00 | 66 | 1007.3 |
| 20260904183006 | 24 | 271 | 0.0 | 4.8 | 0.00 | 0.00 | 0.00 | 65 | 1007.2 |
| 20260904182003 | 24 | 229 | 1.6 | 4.8 | 0.00 | 0.00 | 0.00 | 65 | 1007.0 |
| 20260904181003 | 25 | 217 | 0.0 | 3.2 | 0.00 | 0.00 | 0.00 | 65 | 1006.9 |
| 20260904180003 | 25 | 265 | 1.6 | 3.2 | 0.00 | 0.00 | 0.00 | 64 | 1006.9 |
| 20260904175217 | 25 | 264 | 1.6 | 3.2 | 0.00 | 0.00 | 0.00 | 63 | 1006.7 |
| 20260904174003 | 26 | 272 | 0.0 | 4.8 | 0.00 | 0.00 | 0.00 | 61 | 1006.7 |
| 20260904173006 | 26 | 282 | 0.0 | 3.2 | 0.00 | 0.00 | 0.00 | 60 | 1006.6 |
| 20260904172003 | 26 | 278 | 3.2 | 4.8 | 0.00 | 0.00 | 0.00 | 60 | 1006.6 |
| 20260904171217 | 26 | 223 | 3.2 | 11.3 | 0.00 | 0.00 | 0.00 | 59 | 1006.6 |
| 20260904170003 | 26 | 216 | 4.8 | 8.0 | 0.00 | 0.00 | 0.00 | 60 | 1006.6 |
| 20260904165006 | 26 | 223 | 4.8 | 12.9 | 0.00 | 0.00 | 0.00 | 60 | 1006.5 |
| 20260904164006 | 26 | 213 | 3.2 | 14.5 | 0.00 | 0.00 | 0.00 | 59 | 1006.5 |
| 20260904163003 | 26 | 210 | 3.2 | 9.7 | 0.00 | 0.00 | 0.00 | 60 | 1006.6 |
| 20260904162003 | 26 | 221 | 3.2 | 9.7 | 0.00 | 0.00 | 0.00 | 59 | 1006.7 |
| 20260904161003 | 26 | 206 | 3.2 | 12.9 | 0.00 | 0.00 | 0.00 | 59 | 1006.7 |
| 20260904160006 | 26 | 219 | 4.8 | 17.7 | 0.00 | 0.00 | 0.00 | 59 | 1006.7 |
| 20260904155003 | 26 | 200 | 6.4 | 22.5 | 0.00 | 0.00 | 0.00 | 59 | 1006.9 |
| 20260904154003 | 26 | 222 | 6.4 | 16.1 | 0.00 | 0.00 | 0.00 | 59 | 1006.8 |
| 20260904153006 | 26 | 205 | 6.4 | 17.7 | 0.00 | 0.00 | 0.00 | 59 | 1006.9 |
| 20260904152003 | 26 | 215 | 9.7 | 20.9 | 0.00 | 0.00 | 0.00 | 59 | 1006.9 |
| 20260904151006 | 26 | 215 | 11.3 | 29.0 | 0.00 | 0.00 | 0.00 | 58 | 1006.9 |
| 20260904150003 | 26 | 218 | 12.9 | 24.1 | 0.00 | 0.00 | 0.00 | 58 | 1007.0 |
| 20260904145003 | 27 | 213 | 12.9 | 27.4 | 0.00 | 0.00 | 0.00 | 58 | 1006.9 |
| 20260904144003 | 27 | 215 | 12.9 | 24.1 | 0.00 | 0.00 | 0.00 | 58 | 1006.9 |
| 20260904143003 | 27 | 206 | 14.5 | 30.6 | 0.00 | 0.05 | 0.00 | 58 | 1007.0 |
| 20260904142006 | 27 | 212 | 14.5 | 32.2 | 0.00 | 0.08 | 0.00 | 58 | 1006.9 |
| 20260904141007 | 27 | 221 | 12.9 | 32.2 | 0.00 | 0.08 | 0.00 | 58 | 1007.0 |
| 20260904140003 | 26 | 217 | 14.5 | 25.7 | 0.00 | 0.08 | 0.00 | 59 | 1007.1 |
| 20260904135006 | 26 | 223 | 17.7 | 33.8 | 0.00 | 0.13 | 0.00 | 58 | 1007.3 |
| 20260904134007 | 27 | 219 | 16.1 | 33.8 | 0.00 | 0.15 | 0.00 | 57 | 1007.5 |
| 20260904133003 | 27 | 222 | 14.5 | 32.2 | 0.00 | 0.20 | 0.00 | 57 | 1007.3 |
| 20260904132007 | 27 | 221 | 12.9 | 32.2 | 0.00 | 0.23 | 0.00 | 58 | 1007.3 |
| 20260904131003 | 27 | 211 | 14.5 | 32.2 | 0.00 | 0.25 | 0.00 | 59 | 1007.4 |
| 20260904130221 | 27 | 220 | 14.5 | 37.0 | 0.00 | 0.25 | 0.00 | 60 | 1007.5 |
| 20260904125006 | 26 | 217 | 12.9 | 33.8 | 0.00 | 0.25 | 0.00 | 62 | 1007.7 |
| 20260904124006 | 26 | 222 | 14.5 | 29.0 | 0.00 | 0.25 | 0.00 | 63 | 1008.0 |
| 20260904123003 | 26 | 224 | 14.5 | 33.8 | 0.00 | 0.25 | 0.00 | 63 | 1008.1 |
| 20260904122003 | 26 | 215 | 14.5 | 38.6 | 0.00 | 0.25 | 0.00 | 64 | 1008.2 |
| 20260904121006 | 26 | 218 | 14.5 | 30.6 | 0.00 | 0.25 | 0.00 | 64 | 1008.7 |
| 20260904120217 | 26 | 217 | 9.7 | 29.0 | 0.00 | 0.25 | 0.00 | 64 | 1008.8 |
| 20260904115003 | 25 | 224 | 9.7 | 40.2 | 0.00 | 0.25 | 0.00 | 66 | 1008.9 |
| 20260904114006 | 24 | 219 | 11.3 | 27.4 | 0.00 | 0.25 | 0.00 | 69 | 1009.2 |
| 20260904113003 | 24 | 215 | 11.3 | 24.1 | 0.00 | 0.25 | 0.00 | 68 | 1009.2 |
| 20260904112006 | 24 | 214 | 9.7 | 27.4 | 0.00 | 0.25 | 0.00 | 67 | 1009.5 |
| 20260904111006 | 25 | 229 | 11.3 | 22.5 | 0.00 | 0.25 | 0.00 | 67 | 1009.7 |
| 20260904110221 | 25 | 221 | 11.3 | 25.7 | 0.00 | 0.25 | 0.00 | 67 | 1009.8 |
| 20260904105216 | 25 | 216 | 14.5 | 29.0 | 0.00 | 0.25 | 0.00 | 67 | 1009.8 |
| 20260904104007 | 25 | 212 | 12.9 | 30.6 | 0.00 | 0.25 | 0.00 | 68 | 1010.0 |
| 20260904103216 | 24 | 218 | 14.5 | 25.7 | 0.00 | 0.25 | 0.00 | 71 | 1010.0 |
| 20260904102003 | 23 | 221 | 12.9 | 37.0 | 0.00 | 0.25 | 0.00 | 71 | 1010.3 |
| 20260904101003 | 23 | 218 | 12.9 | 33.8 | 0.00 | 0.25 | 0.00 | 70 | 1010.4 |
| 20260904100006 | 24 | 221 | 14.5 | 35.4 | 0.00 | 0.25 | 0.00 | 70 | 1010.6 |
| 20260904095220 | 24 | 233 | 16.1 | 46.7 | 0.00 | 0.25 | 0.00 | 69 | 1010.5 |
| 20260904094006 | 23 | 216 | 12.9 | 30.6 | 0.00 | 0.25 | 0.00 | 70 | 1010.4 |
| 20260904093007 | 23 | 237 | 12.9 | 30.6 | 0.00 | 0.25 | 0.00 | 70 | 1010.6 |
| 20260904092003 | 23 | 228 | 9.7 | 32.2 | 0.00 | 0.25 | 0.00 | 71 | 1010.7 |
| 20260904091218 | 23 | 230 | 8.0 | 24.1 | 0.00 | 0.25 | 0.00 | 73 | 1010.9 |
| 20260904090003 | 22 | 204 | 8.0 | 16.1 | 0.00 | 0.25 | 0.00 | 74 | 1011.0 |
| 20260904085003 | 22 | 208 | 9.7 | 19.3 | 0.00 | 0.25 | 0.00 | 74 | 1011.1 |
| 20260904084003 | 22 | 183 | 8.0 | 25.7 | 0.00 | 0.25 | 0.00 | 75 | 1011.1 |
| 20260904083007 | 22 | 212 | 8.0 | 19.3 | 0.00 | 0.25 | 0.00 | 76 | 1011.2 |
| 20260904082006 | 22 | 205 | 11.3 | 22.5 | 0.00 | 0.25 | 0.00 | 75 | 1011.2 |
| 20260904081003 | 22 | 218 | 11.3 | 25.7 | 0.00 | 0.25 | 0.00 | 76 | 1011.4 |
| 20260904080006 | 21 | 217 | 9.7 | 19.3 | 0.00 | 0.25 | 0.00 | 78 | 1011.4 |
| 20260904075006 | 21 | 210 | 9.7 | 19.3 | 0.00 | 0.25 | 0.00 | 78 | 1011.4 |
| 20260904074003 | 20 | 201 | 9.7 | 20.9 | 0.00 | 0.25 | 0.00 | 79 | 1011.4 |
| 20260904073007 | 20 | 199 | 8.0 | 27.4 | 0.00 | 0.25 | 0.00 | 80 | 1011.6 |
| 20260904072003 | 20 | 195 | 9.7 | 22.5 | 0.00 | 0.25 | 0.00 | 81 | 1011.8 |
| 20260904071006 | 20 | 193 | 8.0 | 17.7 | 0.00 | 0.25 | 0.00 | 82 | 1012.0 |
| 20260904070006 | 20 | 196 | 4.8 | 17.7 | 0.00 | 0.25 | 0.00 | 84 | 1012.1 |
| 20260904065217 | 19 | 204 | 3.2 | 11.3 | 0.00 | 0.25 | 0.00 | 86 | 1012.3 |
| 20260904064221 | 18 | 179 | 3.2 | 12.9 | 0.00 | 0.25 | 0.00 | 88 | 1012.3 |
| 20260904063221 | 18 | 172 | 3.2 | 9.7 | 0.00 | 0.25 | 0.00 | 89 | 1012.3 |
| 20260904062003 | 18 | 170 | 1.6 | 8.0 | 0.00 | 0.25 | 0.00 | 90 | 1012.3 |
| 20260904061003 | 17 | 185 | 1.6 | 6.4 | 0.00 | 0.25 | 0.00 | 90 | 1012.4 |
| 20260904060006 | 17 | 193 | 3.2 | 8.0 | 0.00 | 0.25 | 0.00 | 91 | 1012.5 |
| 20260904055006 | 17 | 191 | 3.2 | 8.0 | 0.00 | 0.25 | 0.00 | 91 | 1012.5 |
| 20260904054006 | 17 | 183 | 3.2 | 8.0 | 0.00 | 0.25 | 0.00 | 92 | 1012.5 |
| 20260904053006 | 17 | 196 | 3.2 | 8.0 | 0.00 | 0.25 | 0.00 | 92 | 1012.5 |
| 20260904052003 | 17 | 186 | 3.2 | 8.0 | 0.00 | 0.25 | 0.00 | 92 | 1012.6 |
| 20260904051003 | 17 | 194 | 1.6 | 8.0 | 0.00 | 0.25 | 0.00 | 92 | 1012.7 |
| 20260904050003 | 17 | 203 | 1.6 | 4.8 | 0.00 | 0.25 | 0.00 | 92 | 1012.7 |
| 20260904045011 | 17 | 0 | 0.0 | 4.8 | 0.00 | 0.25 | 0.00 | 92 | 1012.8 |
| 20260904044003 | 17 | 0 | 0.0 | 0.0 | 0.00 | 0.25 | 0.00 | 92 | 1012.9 |
| 20260904043003 | 17 | 0 | 0.0 | 0.0 | 0.00 | 0.25 | 0.00 | 92 | 1012.9 |
| 20260904042003 | 17 | 0 | 0.0 | 0.0 | 0.00 | 0.25 | 0.00 | 92 | 1013.1 |
| 20260904041003 | 17 | 195 | 0.0 | 4.8 | 0.00 | 0.25 | 0.00 | 92 | 1013.0 |
| 20260904040003 | 17 | 179 | 1.6 | 4.8 | 0.00 | 0.25 | 0.00 | 92 | 1013.2 |
| 20260904035003 | 16 | 194 | 0.0 | 6.4 | 0.00 | 0.25 | 0.00 | 92 | 1013.3 |
| 20260904034003 | 16 | 203 | 1.6 | 6.4 | 0.00 | 0.25 | 0.00 | 91 | 1013.4 |
| 20260904033003 | 16 | 223 | 1.6 | 3.2 | 0.00 | 0.25 | 0.00 | 91 | 1013.6 |
| 20260904032006 | 16 | 223 | 3.2 | 6.4 | 0.00 | 0.25 | 0.00 | 91 | 1013.5 |
| 20260904031003 | 16 | 230 | 1.6 | 4.8 | 0.00 | 0.25 | 0.00 | 91 | 1013.5 |
| 20260904030007 | 16 | 222 | 1.6 | 4.8 | 0.00 | 0.25 | 0.00 | 91 | 1013.6 |
| 20260904025220 | 16 | 223 | 1.6 | 4.8 | 0.00 | 0.25 | 0.00 | 91 | 1013.4 |
| 20260904024006 | 16 | 224 | 1.6 | 4.8 | 0.00 | 0.25 | 0.00 | 91 | 1013.6 |
| 20260904023006 | 16 | 233 | 1.6 | 3.2 | 0.00 | 0.25 | 0.00 | 90 | 1013.5 |
| 20260904022003 | 16 | 217 | 3.2 | 6.4 | 0.00 | 0.25 | 0.00 | 90 | 1013.7 |
| 20260904021006 | 16 | 202 | 0.0 | 6.4 | 0.00 | 0.25 | 0.00 | 89 | 1013.7 |
| 20260904020003 | 16 | 169 | 1.6 | 3.2 | 0.00 | 0.25 | 0.00 | 89 | 1013.7 |
| 20260904015003 | 16 | 162 | 0.0 | 4.8 | 0.00 | 0.25 | 0.00 | 89 | 1014.1 |
| 20260904014003 | 16 | 169 | 1.6 | 6.4 | 0.00 | 0.25 | 0.00 | 88 | 1014.2 |
| 20260904013223 | 16 | 196 | 1.6 | 4.8 | 0.00 | 0.25 | 0.00 | 88 | 1014.3 |
| 20260904012003 | 16 | 220 | 0.0 | 4.8 | 0.00 | 0.25 | 0.00 | 88 | 1014.3 |
| 20260904011006 | 17 | 156 | 1.6 | 3.2 | 0.00 | 0.25 | 0.00 | 87 | 1014.4 |
| 20260904010003 | 17 | 194 | 1.6 | 9.7 | 0.00 | 0.25 | 0.00 | 87 | 1014.4 |
| 20260904005003 | 17 | 173 | 1.6 | 6.4 | 0.00 | 0.25 | 0.00 | 86 | 1014.5 |
| 20260904004003 | 17 | 178 | 1.6 | 4.8 | 0.00 | 0.25 | 0.00 | 86 | 1014.5 |
| 20260904003006 | 17 | 171 | 1.6 | 6.4 | 0.00 | 0.25 | 0.00 | 86 | 1014.5 |
| 20260904002003 | 17 | 179 | 1.6 | 4.8 | 0.00 | 0.25 | 0.00 | 86 | 1014.5 |
| 20260904001216 | 17 | 187 | 0.0 | 3.2 | 0.00 | 0.25 | 0.00 | 86 | 1014.6 |
| 20260904000006 | 17 | 180 | 1.6 | 6.4 | 0.00 | 0.25 | 0.00 | 86 | 1014.8 |
| 20260903235221 | 17 | 165 | 1.6 | 4.8 | 0.00 | 0.25 | 0.00 | 86 | 1015.1 |
| 20260903234006 | 17 | 192 | 1.6 | 8.0 | 0.00 | 0.25 | 0.00 | 87 | 1015.2 |
| 20260903233006 | 17 | 195 | 3.2 | 8.0 | 0.00 | 0.25 | 0.00 | 86 | 1015.2 |
| 20260903232003 | 17 | 185 | 1.6 | 9.7 | 0.00 | 0.25 | 0.00 | 86 | 1015.1 |
| 20260903231006 | 17 | 191 | 1.6 | 6.4 | 0.00 | 0.25 | 0.00 | 86 | 1015.2 |
| 20260903230003 | 17 | 185 | 1.6 | 6.4 | 0.00 | 0.25 | 0.00 | 85 | 1015.3 |
| 20260903225003 | 17 | 185 | 1.6 | 4.8 | 0.00 | 0.25 | 0.00 | 84 | 1015.2 |
| 20260903224006 | 17 | 182 | 1.6 | 8.0 | 0.00 | 0.25 | 0.00 | 84 | 1015.3 |
| 20260903223003 | 17 | 186 | 1.6 | 6.4 | 0.00 | 0.25 | 0.00 | 83 | 1015.5 |
| 20260903222006 | 18 | 178 | 3.2 | 6.4 | 0.00 | 0.25 | 0.00 | 82 | 1015.6 |
| 20260903221220 | 18 | 190 | 3.2 | 12.9 | 0.00 | 0.25 | 0.00 | 82 | 1015.6 |
| 20260903220218 | 18 | 188 | 4.8 | 12.9 | 0.00 | 0.25 | 0.00 | 82 | 1015.6 |
| 20260903215220 | 18 | 190 | 6.4 | 14.5 | 0.00 | 0.25 | 0.25 | 82 | 1015.7 |
| 20260903214003 | 18 | 196 | 4.8 | 11.3 | 0.00 | 0.25 | 0.25 | 82 | 1015.5 |
| 20260903213003 | 18 | 184 | 6.4 | 14.5 | 0.00 | 0.25 | 0.25 | 82 | 1015.4 |
| 20260903212222 | 18 | 204 | 6.4 | 14.5 | 0.00 | 0.25 | 0.25 | 82 | 1015.4 |
| 20260903211003 | 18 | 207 | 6.4 | 12.9 | 0.00 | 0.25 | 0.25 | 82 | 1015.4 |